Time;durP1;ratioP1;P1;durP2;ratioP2;P2;SDS_P1;SDS_P2;PMS_P1;PMS_P2;Temp;Humidity;BMP_temperature;BMP_pressure;BME280_temperature;BME280_humidity;BME280_pressure;Samples;Min_cycle;Max_cycle;Signal;HPM_P1;HPM_P2
2022/03/15 00:01:52;;;;;;;8.60;5.57;;;5.80;99.90;;;;;;5049002;28;20533;-71
2022/03/15 00:04:39;;;;;;;11.17;6.50;;;5.70;99.90;;;;;;5048979;28;20447;-70
2022/03/15 00:07:26;;;;;;;12.80;6.40;;;5.60;99.90;;;;;;5048033;28;20478;-71
2022/03/15 00:10:13;;;;;;;9.93;6.40;;;5.70;99.90;;;;;;5045488;28;20476;-71
2022/03/15 00:12:59;;;;;;;15.10;6.40;;;5.70;99.90;;;;;;5050580;28;20428;-71
2022/03/15 00:15:45;;;;;;;8.80;6.20;;;5.60;99.90;;;;;;5045885;28;20448;-71
2022/03/15 00:18:31;;;;;;;10.23;6.90;;;5.70;99.90;;;;;;5053207;28;20455;-71
2022/03/15 00:21:20;;;;;;;8.63;5.57;;;5.60;99.90;;;;;;5048395;28;20954;-71
2022/03/15 00:24:07;;;;;;;7.20;6.13;;;5.70;99.90;;;;;;5043836;28;20969;-70
2022/03/15 00:26:54;;;;;;;6.37;5.17;;;5.70;99.90;;;;;;5048874;28;20514;-71
2022/03/15 00:29:39;;;;;;;9.67;6.20;;;5.60;99.90;;;;;;5044167;28;20812;-70
2022/03/15 00:32:25;;;;;;;9.17;5.70;;;5.50;99.90;;;;;;5046438;28;20816;-71
2022/03/15 00:35:16;;;;;;;9.40;5.73;;;5.30;99.90;;;;;;5047158;28;20447;-71
2022/03/15 00:38:03;;;;;;;10.10;5.77;;;5.30;99.90;;;;;;5047379;28;20495;-72
2022/03/15 00:40:49;;;;;;;6.07;5.00;;;5.40;99.90;;;;;;5044645;28;20448;-71
2022/03/15 00:43:35;;;;;;;10.17;6.27;;;5.50;99.90;;;;;;5041373;28;20809;-71
2022/03/15 00:46:20;;;;;;;15.13;5.87;;;5.50;99.90;;;;;;5049220;28;20443;-71
2022/03/15 00:49:06;;;;;;;9.40;6.40;;;5.40;99.90;;;;;;5044296;28;20464;-71
2022/03/15 00:51:51;;;;;;;10.77;5.20;;;5.50;99.90;;;;;;5046613;28;20414;-71
2022/03/15 00:54:38;;;;;;;7.87;5.40;;;5.60;99.90;;;;;;5048741;28;20440;-70
2022/03/15 00:57:24;;;;;;;11.00;6.17;;;5.50;99.90;;;;;;5044601;28;20444;-71
2022/03/15 01:00:12;;;;;;;9.90;6.03;;;5.40;99.90;;;;;;5043251;28;20442;-71
2022/03/15 01:02:58;;;;;;;8.60;5.80;;;5.40;99.90;;;;;;5046466;28;21078;-71
2022/03/15 01:05:44;;;;;;;8.30;6.10;;;5.50;99.90;;;;;;5044955;28;20956;-71
2022/03/15 01:08:29;;;;;;;10.20;5.90;;;5.50;99.90;;;;;;5045764;28;20606;-71
2022/03/15 01:11:16;;;;;;;10.13;6.60;;;5.40;99.90;;;;;;5047395;28;20472;-71
2022/03/15 01:14:02;;;;;;;10.43;5.90;;;5.40;99.90;;;;;;5049145;28;20439;-71
2022/03/15 01:16:48;;;;;;;8.87;6.03;;;5.30;99.90;;;;;;5048651;28;20451;-71
2022/03/15 01:19:33;;;;;;;8.63;6.17;;;5.20;99.90;;;;;;5047381;28;21079;-71
2022/03/15 01:22:19;;;;;;;8.80;7.10;;;5.30;99.90;;;;;;5049045;28;20534;-71
2022/03/15 01:25:05;;;;;;;13.30;7.43;;;5.20;99.90;;;;;;5041404;28;20510;-71
2022/03/15 01:27:53;;;;;;;17.27;7.50;;;5.20;99.90;;;;;;5048809;28;20467;-71
2022/03/15 01:30:38;;;;;;;14.37;7.80;;;5.20;99.90;;;;;;5049212;28;20442;-71
2022/03/15 01:33:24;;;;;;;12.57;7.07;;;5.20;99.90;;;;;;5047602;28;20510;-70
2022/03/15 01:36:10;;;;;;;12.67;8.57;;;5.10;99.90;;;;;;5048685;28;20522;-72
2022/03/15 01:38:56;;;;;;;14.00;8.20;;;5.00;99.90;;;;;;5041746;28;20472;-71
2022/03/15 01:41:44;;;;;;;12.67;8.20;;;5.10;99.90;;;;;;5047142;28;20538;-70
2022/03/15 01:44:33;;;;;;;16.43;7.97;;;5.20;99.90;;;;;;5047364;28;20545;-71
2022/03/15 01:47:19;;;;;;;12.00;8.07;;;5.20;99.90;;;;;;5048492;28;20440;-71
2022/03/15 01:50:05;;;;;;;14.10;7.87;;;5.20;99.90;;;;;;5045106;28;20633;-70
2022/03/15 01:52:51;;;;;;;14.83;7.87;;;5.20;99.90;;;;;;5044534;28;20780;-71
2022/03/15 01:55:37;;;;;;;10.20;6.60;;;5.20;99.90;;;;;;5048447;28;20486;-71
2022/03/15 01:58:22;;;;;;;7.97;5.83;;;5.30;99.90;;;;;;5042910;28;20502;-71
2022/03/15 02:01:10;;;;;;;9.67;6.90;;;5.20;99.90;;;;;;5046466;28;20409;-72
2022/03/15 02:03:55;;;;;;;9.83;6.57;;;5.10;99.90;;;;;;5050256;28;20417;-71
2022/03/15 02:06:42;;;;;;;9.00;5.93;;;5.20;99.90;;;;;;5045861;28;20792;-71
2022/03/15 02:09:28;;;;;;;9.53;6.47;;;5.20;99.90;;;;;;5043233;28;20474;-71
2022/03/15 02:12:14;;;;;;;9.20;6.80;;;5.20;99.90;;;;;;5049505;28;20813;-71
2022/03/15 02:15:02;;;;;;;12.93;7.03;;;5.30;99.90;;;;;;5046656;28;20862;-70
2022/03/15 02:17:50;;;;;;;11.83;7.40;;;5.40;99.90;;;;;;5050264;28;20471;-72
2022/03/15 02:20:37;;;;;;;12.20;6.53;;;5.30;99.90;;;;;;5048625;28;20503;-70
2022/03/15 02:23:22;;;;;;;9.17;7.00;;;5.30;99.90;;;;;;5046994;28;20471;-70
2022/03/15 02:26:08;;;;;;;12.07;5.67;;;5.30;99.90;;;;;;5049483;28;20485;-71
2022/03/15 02:28:54;;;;;;;10.53;6.23;;;5.30;99.90;;;;;;5044315;28;20568;-71
2022/03/15 02:31:40;;;;;;;8.03;5.80;;;5.30;99.90;;;;;;5046847;28;20530;-71
2022/03/15 02:34:26;;;;;;;12.10;6.27;;;5.20;99.90;;;;;;5049647;28;20482;-70
2022/03/15 02:37:13;;;;;;;10.17;5.93;;;5.20;99.90;;;;;;5050432;28;20439;-70
2022/03/15 02:39:58;;;;;;;10.90;6.23;;;5.20;99.90;;;;;;5044428;28;20601;-71
2022/03/15 02:42:44;;;;;;;6.80;5.87;;;5.30;99.90;;;;;;5048074;28;20542;-71
2022/03/15 02:45:30;;;;;;;11.07;6.63;;;5.20;99.90;;;;;;5051072;28;20443;-71
2022/03/15 02:48:15;;;;;;;8.07;6.10;;;5.40;99.90;;;;;;5046923;28;20471;-71
2022/03/15 02:51:06;;;;;;;6.97;6.10;;;5.40;99.90;;;;;;5051583;28;20443;-70
2022/03/15 02:53:56;;;;;;;10.03;5.70;;;5.30;99.90;;;;;;5054666;28;20447;-71
2022/03/15 02:56:43;;;;;;;11.07;6.23;;;5.30;99.90;;;;;;5051968;28;20427;-70
2022/03/15 02:59:29;;;;;;;8.83;5.83;;;5.30;99.90;;;;;;5048649;28;20830;-70
2022/03/15 03:02:14;;;;;;;11.33;6.00;;;5.20;99.90;;;;;;5051497;28;20478;-71
2022/03/15 03:04:59;;;;;;;8.90;5.70;;;5.20;99.90;;;;;;5052419;28;20964;-70
2022/03/15 03:07:45;;;;;;;10.77;6.53;;;5.20;99.90;;;;;;5050609;28;20582;-71
2022/03/15 03:10:33;;;;;;;16.13;6.33;;;5.30;99.90;;;;;;5048549;28;21082;-71
2022/03/15 03:13:26;;;;;;;9.00;5.23;;;5.30;99.90;;;;;;5050665;28;21014;-70
2022/03/15 03:16:13;;;;;;;6.90;5.43;;;5.40;99.90;;;;;;5052441;28;20451;-71
2022/03/15 03:18:59;;;;;;;9.50;6.30;;;5.20;99.90;;;;;;5048138;28;21041;-71
2022/03/15 03:21:44;;;;;;;8.10;6.10;;;5.20;99.90;;;;;;5052563;28;20489;-71
2022/03/15 03:24:30;;;;;;;7.83;5.77;;;5.20;99.90;;;;;;5051301;28;20443;-71
2022/03/15 03:27:16;;;;;;;9.90;6.10;;;5.30;99.90;;;;;;5048161;28;20536;-70
2022/03/15 03:30:03;;;;;;;13.17;6.00;;;5.40;99.90;;;;;;5050748;28;20422;-71
2022/03/15 03:32:48;;;;;;;11.93;5.80;;;5.40;99.90;;;;;;5048666;28;20451;-71
2022/03/15 03:35:34;;;;;;;14.73;6.00;;;5.50;99.90;;;;;;5050947;28;20525;-70
2022/03/15 03:38:19;;;;;;;7.83;6.13;;;5.60;99.90;;;;;;5048396;28;20992;-71
2022/03/15 03:41:05;;;;;;;6.90;5.07;;;5.50;99.90;;;;;;5050683;28;20485;-71
2022/03/15 03:43:53;;;;;;;9.93;5.80;;;5.40;99.90;;;;;;5051845;28;20450;-71
2022/03/15 03:46:38;;;;;;;8.60;4.90;;;5.40;99.90;;;;;;5048716;28;20443;-70
2022/03/15 03:49:24;;;;;;;8.63;5.70;;;5.30;99.90;;;;;;5048375;28;20539;-71
2022/03/15 03:52:11;;;;;;;11.50;6.30;;;5.30;99.90;;;;;;5053049;28;20944;-71
2022/03/15 03:54:57;;;;;;;12.93;5.90;;;5.30;99.90;;;;;;5051403;28;20490;-72
2022/03/15 03:57:42;;;;;;;11.67;6.57;;;5.40;99.90;;;;;;5047769;28;20554;-70
2022/03/15 04:00:30;;;;;;;10.83;6.67;;;5.50;99.90;;;;;;5051059;28;20426;-71
2022/03/15 04:03:16;;;;;;;12.30;5.87;;;5.40;99.90;;;;;;5053462;28;20526;-72
2022/03/15 04:06:04;;;;;;;9.10;5.20;;;5.30;99.90;;;;;;5051432;28;20555;-71
2022/03/15 04:08:54;;;;;;;10.37;5.93;;;5.30;99.90;;;;;;5048429;28;21050;-71
2022/03/15 04:11:41;;;;;;;10.50;6.00;;;5.30;99.90;;;;;;5053641;28;20470;-71
2022/03/15 04:14:27;;;;;;;8.80;6.03;;;5.40;99.90;;;;;;5052027;28;20492;-71
2022/03/15 04:17:14;;;;;;;7.07;5.60;;;5.50;99.90;;;;;;5048272;28;20617;-71
2022/03/15 04:20:00;;;;;;;7.87;4.90;;;5.40;99.90;;;;;;5050172;28;20783;-72
2022/03/15 04:22:46;;;;;;;7.73;4.70;;;5.40;99.90;;;;;;5049419;28;20521;-71
2022/03/15 04:25:31;;;;;;;6.17;4.43;;;5.40;99.90;;;;;;5051184;28;20513;-71
2022/03/15 04:28:17;;;;;;;8.20;5.47;;;5.40;99.90;;;;;;5046521;28;20474;-71
2022/03/15 04:31:02;;;;;;;12.63;4.77;;;5.50;99.90;;;;;;5053043;28;21020;-72
2022/03/15 04:33:50;;;;;;;9.43;4.97;;;5.50;99.90;;;;;;5052010;28;20418;-70
2022/03/15 04:36:36;;;;;;;6.30;4.67;;;5.50;99.90;;;;;;5048324;28;20455;-70
2022/03/15 04:39:21;;;;;;;6.80;4.17;;;5.40;99.90;;;;;;5049074;28;20465;-71
2022/03/15 04:42:08;;;;;;;10.80;4.03;;;5.30;99.90;;;;;;5047690;28;20426;-71
2022/03/15 04:44:54;;;;;;;6.70;4.47;;;5.20;99.90;;;;;;5048604;28;20439;-70
2022/03/15 04:47:40;;;;;;;7.30;4.20;;;5.30;99.90;;;;;;5045851;28;21044;-71
2022/03/15 04:50:27;;;;;;;7.00;3.93;;;5.30;99.90;;;;;;5049829;28;20448;-71
2022/03/15 04:53:13;;;;;;;5.57;3.77;;;5.40;99.90;;;;;;5051606;28;20506;-71
2022/03/15 04:55:59;;;;;;;7.23;4.40;;;5.50;99.90;;;;;;5048971;28;20805;-71
2022/03/15 04:58:45;;;;;;;7.13;4.30;;;5.50;99.90;;;;;;5049086;28;20531;-71
2022/03/15 05:01:30;;;;;;;8.37;4.77;;;5.50;99.90;;;;;;5047687;28;20422;-71
2022/03/15 05:04:16;;;;;;;5.97;4.23;;;5.40;99.90;;;;;;5049881;28;20450;-71
2022/03/15 05:07:03;;;;;;;4.83;3.90;;;5.40;99.90;;;;;;5045529;28;20447;-71
2022/03/15 05:12:52;;;;;;;5.67;4.20;;;5.50;99.90;;;;;;5051874;28;20486;-71
2022/03/15 05:15:38;;;;;;;7.10;4.87;;;5.50;99.90;;;;;;5048491;28;20815;-71
2022/03/15 05:18:24;;;;;;;7.80;5.60;;;5.60;99.90;;;;;;5050944;28;20478;-71
2022/03/15 05:21:14;;;;;;;6.90;5.00;;;5.70;99.90;;;;;;5049182;28;20456;-71
2022/03/15 05:24:02;;;;;;;6.30;4.77;;;5.80;99.90;;;;;;5049010;28;20438;-72
2022/03/15 05:26:47;;;;;;;5.93;4.47;;;5.80;99.90;;;;;;5047767;28;20473;-70
2022/03/15 05:29:33;;;;;;;14.97;5.43;;;5.70;99.90;;;;;;5045364;28;20418;-71
2022/03/15 05:32:19;;;;;;;7.63;4.70;;;5.70;99.90;;;;;;5048672;28;20808;-71
2022/03/15 05:35:05;;;;;;;7.47;5.07;;;5.70;99.90;;;;;;5052939;28;20443;-72
2022/03/15 05:37:51;;;;;;;7.43;4.57;;;5.60;99.90;;;;;;5045592;28;20972;-71
2022/03/15 05:40:39;;;;;;;12.97;4.50;;;5.70;99.90;;;;;;5047784;28;20430;-71
2022/03/15 05:43:24;;;;;;;5.57;4.47;;;5.70;99.90;;;;;;5045969;28;20533;-71
2022/03/15 05:46:10;;;;;;;6.97;5.53;;;5.70;99.90;;;;;;5046100;28;20668;-71
2022/03/15 05:48:56;;;;;;;8.47;5.87;;;5.70;99.90;;;;;;5049272;28;20490;-72
2022/03/15 05:51:41;;;;;;;8.43;6.17;;;5.70;99.90;;;;;;5046958;28;20940;-72
2022/03/15 05:54:27;;;;;;;11.37;5.53;;;5.80;99.90;;;;;;5052427;28;20458;-70
2022/03/15 05:57:14;;;;;;;11.47;7.10;;;5.80;99.90;;;;;;5048704;28;20427;-71
2022/03/15 06:00:00;;;;;;;10.93;5.70;;;5.70;99.90;;;;;;5048791;28;20422;-71
2022/03/15 06:02:45;;;;;;;10.67;6.60;;;5.80;99.90;;;;;;5050246;28;20569;-71
2022/03/15 06:05:31;;;;;;;10.40;7.10;;;5.80;99.90;;;;;;5047171;28;20440;-71
2022/03/15 06:08:17;;;;;;;7.70;5.17;;;5.70;99.90;;;;;;5051378;28;20572;-71
2022/03/15 06:11:03;;;;;;;11.27;7.13;;;5.70;99.90;;;;;;5050323;28;20534;-70
2022/03/15 06:13:50;;;;;;;8.73;6.03;;;5.70;99.90;;;;;;5044145;28;20499;-71
2022/03/15 06:16:35;;;;;;;9.10;5.43;;;5.70;99.90;;;;;;5041670;28;20814;-71
2022/03/15 06:19:21;;;;;;;8.47;5.57;;;5.70;99.90;;;;;;5045733;28;20475;-71
2022/03/15 06:22:07;;;;;;;10.80;5.53;;;5.80;99.90;;;;;;5048588;28;20985;-72
2022/03/15 06:24:52;;;;;;;8.00;5.20;;;5.80;99.90;;;;;;5051327;28;20457;-71
2022/03/15 06:27:38;;;;;;;8.80;5.47;;;5.80;99.90;;;;;;5044622;28;20489;-71
2022/03/15 06:30:25;;;;;;;10.27;6.10;;;5.90;99.90;;;;;;5049136;28;20646;-71
2022/03/15 06:33:11;;;;;;;10.63;5.40;;;6.00;99.90;;;;;;5050703;28;20820;-71
2022/03/15 06:35:56;;;;;;;10.90;6.30;;;6.00;99.90;;;;;;5042470;28;20786;-71
2022/03/15 06:38:43;;;;;;;9.27;5.60;;;6.00;99.90;;;;;;5048093;28;20470;-72
2022/03/15 06:41:29;;;;;;;9.50;4.83;;;6.00;99.90;;;;;;5045328;28;20463;-71
2022/03/15 06:44:15;;;;;;;9.80;6.20;;;6.10;99.90;;;;;;5048356;28;20533;-71
2022/03/15 06:47:03;;;;;;;10.50;5.47;;;6.20;99.90;;;;;;5045622;28;20438;-71
2022/03/15 06:49:48;;;;;;;7.83;5.23;;;6.30;99.90;;;;;;5047471;28;20495;-71
2022/03/15 06:52:34;;;;;;;7.70;5.10;;;6.40;99.90;;;;;;5050304;28;20472;-70
2022/03/15 06:55:20;;;;;;;8.20;5.10;;;6.50;99.90;;;;;;5046753;28;20450;-72
2022/03/15 06:58:05;;;;;;;9.37;5.17;;;6.50;99.90;;;;;;5050857;28;20486;-71
2022/03/15 07:00:52;;;;;;;8.10;4.97;;;6.50;99.90;;;;;;5048995;28;20439;-71
2022/03/15 07:03:39;;;;;;;7.90;5.43;;;6.60;99.90;;;;;;5043761;28;20529;-71
2022/03/15 07:06:24;;;;;;;8.33;4.97;;;6.60;99.90;;;;;;5042532;28;20495;-71
2022/03/15 07:09:10;;;;;;;6.20;4.37;;;6.70;99.90;;;;;;5046528;28;20463;-71
2022/03/15 07:11:56;;;;;;;12.63;5.50;;;6.80;99.90;;;;;;5046185;28;20425;-71
2022/03/15 07:14:43;;;;;;;6.57;4.20;;;6.80;99.90;;;;;;5039845;28;20449;-71
2022/03/15 07:17:30;;;;;;;9.57;5.17;;;6.80;99.90;;;;;;5045276;28;20566;-71
2022/03/15 07:20:16;;;;;;;9.47;5.07;;;6.90;99.90;;;;;;5040882;28;20533;-71
2022/03/15 07:23:02;;;;;;;8.60;4.90;;;6.90;99.90;;;;;;5046629;28;20422;-72
2022/03/15 07:25:48;;;;;;;8.33;5.47;;;7.00;99.90;;;;;;5044830;28;20467;-71
2022/03/15 07:28:34;;;;;;;6.73;4.20;;;7.10;99.90;;;;;;5040736;28;20442;-70
2022/03/15 07:31:19;;;;;;;6.97;4.63;;;7.10;99.90;;;;;;5047350;28;20443;-71
2022/03/15 07:34:05;;;;;;;5.87;4.20;;;7.20;99.90;;;;;;5045297;28;20514;-70
2022/03/15 07:36:52;;;;;;;12.00;5.10;;;7.40;99.90;;;;;;5047798;28;20451;-71
2022/03/15 07:39:38;;;;;;;8.17;4.83;;;7.50;99.90;;;;;;5051324;28;20940;-71
2022/03/15 07:42:24;;;;;;;4.83;3.73;;;7.50;99.90;;;;;;5047848;28;20415;-70
2022/03/15 07:45:11;;;;;;;5.00;3.97;;;7.70;99.90;;;;;;5048548;28;20934;-70
2022/03/15 07:47:56;;;;;;;9.30;3.90;;;7.80;99.90;;;;;;5049607;28;20607;-71
2022/03/15 07:50:42;;;;;;;8.57;4.40;;;7.90;99.90;;;;;;5048192;28;20913;-71
2022/03/15 07:53:29;;;;;;;9.07;4.57;;;7.90;99.90;;;;;;5051393;28;20855;-71
2022/03/15 07:56:14;;;;;;;5.63;3.80;;;8.10;99.90;;;;;;5045098;28;20506;-70
2022/03/15 07:59:00;;;;;;;13.97;5.27;;;8.20;99.90;;;;;;5047657;28;20474;-70
2022/03/15 08:01:46;;;;;;;10.47;6.00;;;8.30;99.90;;;;;;5051272;28;20451;-71
2022/03/15 08:04:31;;;;;;;15.33;7.57;;;8.40;99.90;;;;;;5043280;28;20435;-70
2022/03/15 08:07:17;;;;;;;27.03;8.30;;;8.40;99.90;;;;;;5053254;28;20476;-71
2022/03/15 08:10:04;;;;;;;16.00;8.57;;;8.40;99.90;;;;;;5055569;28;20424;-70
2022/03/15 08:12:50;;;;;;;12.67;8.50;;;8.50;99.90;;;;;;5050396;28;20485;-71
2022/03/15 08:15:36;;;;;;;13.80;8.30;;;8.50;99.90;;;;;;5048625;28;20421;-71
2022/03/15 08:18:22;;;;;;;12.97;9.17;;;8.60;99.90;;;;;;5045091;28;20482;-71
2022/03/15 08:21:08;;;;;;;11.00;9.33;;;8.60;99.90;;;;;;5048435;28;20444;-71
2022/03/15 08:23:54;;;;;;;19.43;9.87;;;8.70;99.90;;;;;;5042813;28;21078;-71
2022/03/15 08:26:41;;;;;;;15.70;8.73;;;8.70;99.90;;;;;;5049766;28;20430;-71
2022/03/15 08:29:29;;;;;;;13.93;9.07;;;8.70;99.90;;;;;;5051314;28;20936;-71
2022/03/15 08:32:15;;;;;;;14.00;8.23;;;8.80;99.90;;;;;;5051736;28;20462;-71
2022/03/15 08:35:00;;;;;;;14.40;7.80;;;8.80;99.90;;;;;;5048495;28;20491;-70
2022/03/15 08:37:50;;;;;;;13.27;7.73;;;8.80;99.90;;;;;;5045339;28;20476;-70
2022/03/15 08:40:36;;;;;;;13.03;7.97;;;8.80;99.90;;;;;;5046084;28;20931;-70
2022/03/15 08:43:24;;;;;;;12.13;8.20;;;8.90;99.90;;;;;;5045231;28;20455;-70
2022/03/15 08:46:09;;;;;;;14.90;8.13;;;8.90;99.90;;;;;;5048261;28;20440;-70
2022/03/15 08:48:55;;;;;;;14.23;6.33;;;9.00;99.90;;;;;;5050141;28;20613;-70
2022/03/15 08:51:41;;;;;;;11.40;7.00;;;9.00;99.90;;;;;;5045399;28;20564;-71
2022/03/15 08:54:27;;;;;;;8.63;6.70;;;9.10;99.90;;;;;;5044991;28;20593;-70
2022/03/15 08:57:14;;;;;;;10.27;7.17;;;9.10;99.90;;;;;;5048214;28;21745;-70
2022/03/15 09:00:02;;;;;;;13.60;7.43;;;9.10;99.90;;;;;;5046789;28;20436;-71
2022/03/15 09:02:48;;;;;;;19.57;7.30;;;9.20;99.90;;;;;;5047138;28;20417;-70
2022/03/15 09:05:34;;;;;;;18.70;6.90;;;9.20;99.90;;;;;;5044975;28;20442;-71
2022/03/15 09:08:20;;;;;;;10.37;7.10;;;9.30;99.90;;;;;;5051242;28;20418;-70
2022/03/15 09:11:05;;;;;;;14.40;8.20;;;9.30;99.90;;;;;;5049618;28;20474;-71
2022/03/15 09:13:51;;;;;;;10.90;7.40;;;9.40;99.90;;;;;;5047848;28;20949;-70
2022/03/15 09:16:39;;;;;;;12.67;6.33;;;9.40;99.90;;;;;;5044983;28;20407;-70
2022/03/15 09:19:26;;;;;;;14.07;7.03;;;9.50;99.90;;;;;;5047535;28;20495;-70
2022/03/15 09:22:11;;;;;;;9.73;5.87;;;9.50;99.90;;;;;;5051796;28;20974;-70
2022/03/15 09:24:57;;;;;;;16.90;7.13;;;9.50;99.90;;;;;;5045962;28;20884;-70
2022/03/15 09:27:43;;;;;;;9.17;7.03;;;9.50;99.90;;;;;;5042721;28;20481;-70
2022/03/15 09:30:30;;;;;;;11.50;7.13;;;9.50;99.90;;;;;;5050908;28;20412;-71
2022/03/15 09:33:19;;;;;;;10.03;6.63;;;9.60;99.90;;;;;;5048120;28;21032;-71
2022/03/15 09:36:06;;;;;;;12.10;6.57;;;9.70;99.90;;;;;;5051054;28;20416;-71
2022/03/15 09:38:52;;;;;;;9.90;5.40;;;9.70;99.90;;;;;;5047178;28;20444;-71
2022/03/15 09:41:39;;;;;;;21.17;7.30;;;9.80;99.90;;;;;;5047385;28;20407;-71
2022/03/15 09:44:28;;;;;;;11.50;7.10;;;9.80;99.90;;;;;;5046546;28;20846;-71
2022/03/15 09:47:18;;;;;;;9.70;7.70;;;9.90;99.90;;;;;;5051437;28;20928;-70
2022/03/15 09:50:07;;;;;;;14.87;7.47;;;9.90;99.90;;;;;;5041363;28;20501;-70
2022/03/15 09:52:55;;;;;;;18.30;6.90;;;10.00;99.90;;;;;;5045732;28;20818;-70
2022/03/15 09:55:44;;;;;;;12.53;6.20;;;10.00;99.90;;;;;;5050499;28;20396;-70
2022/03/15 09:58:30;;;;;;;12.50;6.30;;;10.00;99.90;;;;;;5049218;28;20564;-70
2022/03/15 10:01:19;;;;;;;8.67;5.07;;;10.10;99.90;;;;;;5051278;28;20874;-71
2022/03/15 10:04:05;;;;;;;12.23;5.97;;;10.10;99.90;;;;;;5046045;28;21027;-71
2022/03/15 10:06:53;;;;;;;7.93;3.90;;;10.20;99.90;;;;;;5047574;28;20875;-71
2022/03/15 10:09:40;;;;;;;8.10;4.23;;;10.20;99.90;;;;;;5049719;28;20560;-71
2022/03/15 10:12:25;;;;;;;14.00;4.50;;;10.30;99.90;;;;;;5048816;28;20434;-71
2022/03/15 10:15:16;;;;;;;6.80;4.23;;;10.30;99.90;;;;;;5049659;28;20442;-71
2022/03/15 10:18:05;;;;;;;6.87;3.80;;;10.40;99.90;;;;;;5050940;28;20595;-71
2022/03/15 10:20:51;;;;;;;7.43;3.87;;;10.50;99.90;;;;;;5042650;28;20520;-71
2022/03/15 10:23:39;;;;;;;4.53;3.23;;;10.50;99.90;;;;;;5042421;28;20786;-70
2022/03/15 10:26:26;;;;;;;10.00;4.23;;;10.50;99.90;;;;;;5045860;28;20913;-69
2022/03/15 10:29:13;;;;;;;7.20;4.50;;;10.50;99.90;;;;;;5048587;28;20427;-69
2022/03/15 10:32:00;;;;;;;8.23;3.90;;;10.50;99.90;;;;;;5049141;28;20494;-70
2022/03/15 10:34:45;;;;;;;14.83;4.10;;;10.60;99.90;;;;;;5045905;28;20404;-70
2022/03/15 10:37:32;;;;;;;7.17;3.07;;;10.50;99.90;;;;;;5047076;28;21021;-69
2022/03/15 10:40:31;;;;;;;9.70;5.20;;;10.60;99.90;;;;;;5045329;28;20433;-70
2022/03/15 10:43:19;;;;;;;10.00;3.90;;;10.60;99.90;;;;;;5045283;28;20443;-70
2022/03/15 10:46:04;;;;;;;8.83;5.60;;;10.70;99.90;;;;;;5054795;28;20473;-70
2022/03/15 10:49:00;;;;;;;7.47;4.80;;;10.70;99.90;;;;;;5048246;28;20503;-70
2022/03/15 10:51:48;;;;;;;12.87;5.93;;;10.80;99.90;;;;;;5050735;28;20432;-69
2022/03/15 10:54:35;;;;;;;10.50;5.97;;;10.70;99.90;;;;;;5046025;28;20417;-71
2022/03/15 10:57:22;;;;;;;9.83;5.93;;;10.70;99.90;;;;;;5046545;28;20425;-71
2022/03/15 11:00:08;;;;;;;7.23;5.20;;;10.70;99.90;;;;;;5046302;28;20449;-71
2022/03/15 11:02:55;;;;;;;9.43;5.60;;;10.70;99.90;;;;;;5044322;28;20437;-71
2022/03/15 11:05:43;;;;;;;10.73;6.03;;;10.70;99.90;;;;;;5047524;28;20473;-71
2022/03/15 11:08:29;;;;;;;14.27;6.63;;;10.60;99.90;;;;;;5048094;28;20467;-71
2022/03/15 11:11:27;;;;;;;14.67;6.93;;;10.60;99.90;;;;;;5044146;28;20430;-71
2022/03/15 11:14:14;;;;;;;8.97;6.10;;;10.60;99.90;;;;;;5045011;28;20441;-71
2022/03/15 11:17:01;;;;;;;9.73;6.10;;;10.60;99.90;;;;;;5046188;28;20531;-71
2022/03/15 11:19:49;;;;;;;11.93;5.63;;;10.60;99.90;;;;;;5050938;28;20566;-71
2022/03/15 11:22:36;;;;;;;17.83;7.53;;;10.60;99.90;;;;;;5048245;22;20492;-87
2022/03/15 11:25:22;;;;;;;16.40;5.90;;;10.50;99.90;;;;;;5034000;28;20493;-87
2022/03/15 11:28:12;;;;;;;12.67;6.07;;;10.50;99.90;;;;;;5032484;28;20437;-87
2022/03/15 11:31:00;;;;;;;12.40;5.93;;;10.50;99.90;;;;;;5031789;28;20506;-87
2022/03/15 11:33:47;;;;;;;10.30;6.13;;;10.50;99.90;;;;;;5032558;28;20482;-87
2022/03/15 11:36:34;;;;;;;8.47;6.23;;;10.50;99.90;;;;;;5015635;28;20436;-89
2022/03/15 11:39:21;;;;;;;11.80;6.23;;;10.60;99.90;;;;;;5035258;28;20476;-87
2022/03/15 11:42:10;;;;;;;12.70;5.57;;;10.60;99.90;;;;;;5031189;28;20784;-87
2022/03/15 11:45:03;;;;;;;10.93;6.30;;;10.60;99.90;;;;;;5030577;28;20604;-88
2022/03/15 11:48:00;;;;;;;12.90;6.63;;;10.60;99.90;;;;;;5029561;28;20454;-87
2022/03/15 11:50:55;;;;;;;7.40;5.23;;;10.60;99.90;;;;;;5029091;28;20400;-87
2022/03/15 11:53:48;;;;;;;12.13;5.60;;;10.70;99.90;;;;;;5033621;28;21053;-87
2022/03/15 11:56:43;;;;;;;14.43;5.80;;;10.60;99.90;;;;;;5028526;28;20914;-88
2022/03/15 11:59:47;;;;;;;16.80;6.00;;;10.50;99.90;;;;;;5032240;28;20502;-87
2022/03/15 12:02:38;;;;;;;12.83;5.73;;;10.60;99.90;;;;;;5031849;28;20420;-87
2022/03/15 12:05:27;;;;;;;10.83;6.00;;;10.50;99.90;;;;;;5033657;28;20425;-87
2022/03/15 12:08:18;;;;;;;16.57;6.37;;;10.40;99.90;;;;;;5031280;28;21309;-87
2022/03/15 12:11:05;;;;;;;10.70;5.63;;;10.40;99.90;;;;;;5033786;28;20427;-87
2022/03/15 12:13:52;;;;;;;11.87;6.13;;;10.40;99.90;;;;;;5030102;28;20429;-87
2022/03/15 12:16:43;;;;;;;13.90;7.20;;;10.40;99.90;;;;;;5028887;28;20689;-87
2022/03/15 12:19:35;;;;;;;8.90;6.30;;;10.30;99.90;;;;;;5030220;28;20494;-86
2022/03/15 12:22:27;;;;;;;7.90;6.20;;;10.20;99.90;;;;;;5033730;28;20412;-87
2022/03/15 12:25:14;;;;;;;9.10;6.60;;;10.20;99.90;;;;;;5033153;28;20568;-87
2022/03/15 12:28:03;;;;;;;10.43;6.07;;;10.20;99.90;;;;;;5028491;28;20470;-87
2022/03/15 12:30:51;;;;;;;12.10;6.97;;;10.10;99.90;;;;;;5032262;28;20440;-87
2022/03/15 12:33:37;;;;;;;13.87;7.07;;;10.00;99.90;;;;;;5019038;28;20470;-85
2022/03/15 12:36:23;;;;;;;12.73;6.90;;;10.00;99.90;;;;;;5022477;28;20420;-85
2022/03/15 12:39:12;;;;;;;9.10;6.20;;;10.00;99.90;;;;;;5026244;28;20540;-87
2022/03/15 12:42:09;;;;;;;12.17;6.70;;;9.90;99.90;;;;;;5030251;28;20453;-86
2022/03/15 12:45:02;;;;;;;7.80;6.63;;;9.90;99.90;;;;;;5030003;28;20482;-86
2022/03/15 12:47:48;;;;;;;11.90;7.40;;;9.80;99.90;;;;;;5027532;28;20808;-86
2022/03/15 12:50:36;;;;;;;11.00;7.30;;;9.80;99.90;;;;;;5031948;28;20450;-86
2022/03/15 12:53:24;;;;;;;10.83;6.60;;;9.80;99.90;;;;;;5031519;28;20454;-86
2022/03/15 12:56:13;;;;;;;16.50;9.13;;;9.80;99.90;;;;;;5030421;28;20431;-86
2022/03/15 12:58:59;;;;;;;10.03;7.50;;;9.80;99.90;;;;;;5031895;28;20401;-86
2022/03/15 13:01:47;;;;;;;10.87;7.60;;;9.80;99.90;;;;;;5033305;28;20429;-86
2022/03/15 13:04:35;;;;;;;12.63;6.97;;;9.80;99.90;;;;;;5032711;28;20431;-88
2022/03/15 13:07:28;;;;;;;14.33;6.87;;;9.80;99.90;;;;;;5028835;28;20451;-86
2022/03/15 13:10:15;;;;;;;11.90;7.80;;;9.80;99.90;;;;;;5032795;28;20442;-86
2022/03/15 13:13:03;;;;;;;11.67;7.43;;;9.80;99.90;;;;;;5027249;28;20587;-87
2022/03/15 13:15:50;;;;;;;11.77;7.83;;;9.80;99.90;;;;;;5023099;28;20445;-86
2022/03/15 13:18:37;;;;;;;13.97;7.27;;;9.80;99.90;;;;;;5028557;28;20446;-87
2022/03/15 13:21:32;;;;;;;15.00;8.00;;;9.80;99.90;;;;;;5027501;28;21051;-87
2022/03/15 13:24:23;;;;;;;14.93;7.50;;;9.80;99.90;;;;;;5021688;28;20582;-87
2022/03/15 13:27:09;;;;;;;14.60;7.60;;;9.70;99.90;;;;;;5024342;28;20497;-87
2022/03/15 13:29:56;;;;;;;12.80;7.00;;;9.70;99.90;;;;;;5023601;28;20831;-86
2022/03/15 13:32:42;;;;;;;14.07;7.77;;;9.70;99.90;;;;;;5025163;28;20523;-86
2022/03/15 13:35:27;;;;;;;15.80;8.37;;;9.60;99.90;;;;;;5025866;28;20581;-86
2022/03/15 13:38:17;;;;;;;18.07;7.23;;;9.60;99.90;;;;;;5027320;28;20539;-86
2022/03/15 13:41:05;;;;;;;14.10;7.30;;;9.50;99.90;;;;;;5029303;28;20416;-86
2022/03/15 13:43:51;;;;;;;14.87;7.13;;;9.50;99.90;;;;;;5027751;28;20523;-85
2022/03/15 13:46:39;;;;;;;13.47;7.43;;;9.40;99.90;;;;;;5023637;28;20463;-86
2022/03/15 13:49:27;;;;;;;12.80;7.73;;;9.40;99.90;;;;;;5025770;28;20448;-87
2022/03/15 13:52:16;;;;;;;12.13;6.63;;;9.40;99.90;;;;;;5021784;28;20432;-86
2022/03/15 13:55:03;;;;;;;15.10;7.53;;;9.40;99.90;;;;;;5022021;28;20431;-86
2022/03/15 13:57:51;;;;;;;12.20;6.87;;;9.30;99.90;;;;;;5028938;28;20433;-86
2022/03/15 14:00:37;;;;;;;9.47;6.00;;;9.40;99.90;;;;;;5027685;28;20442;-86
2022/03/15 14:03:32;;;;;;;13.27;5.97;;;9.40;99.90;;;;;;5025728;28;20617;-86
2022/03/15 14:06:19;;;;;;;10.80;7.37;;;9.40;99.90;;;;;;5023234;28;21014;-86
2022/03/15 14:09:05;;;;;;;9.20;6.70;;;9.40;99.90;;;;;;5023936;28;20979;-85
2022/03/15 14:12:01;;;;;;;13.10;6.10;;;9.40;99.90;;;;;;5021628;28;20456;-85
2022/03/15 14:14:50;;;;;;;11.93;6.00;;;9.50;99.90;;;;;;5026456;28;20419;-86
2022/03/15 14:17:48;;;;;;;8.60;6.33;;;9.40;99.90;;;;;;5028059;28;20815;-86
2022/03/15 14:20:41;;;;;;;11.10;6.47;;;9.40;99.90;;;;;;5026160;28;20588;-86
2022/03/15 14:23:29;;;;;;;12.73;8.13;;;9.40;99.90;;;;;;5059985;22;20539;-70
2022/03/15 14:26:25;;;;;;;12.93;7.53;;;9.40;99.90;;;;;;5082428;28;20620;-69
2022/03/15 14:29:19;;;;;;;10.33;7.40;;;9.40;99.90;;;;;;5088321;28;20416;-70
2022/03/15 14:32:06;;;;;;;19.67;7.90;;;9.30;99.90;;;;;;5083434;28;20448;-69
2022/03/15 14:34:55;;;;;;;9.93;6.80;;;9.30;99.90;;;;;;5082915;28;20427;-70
2022/03/15 14:37:42;;;;;;;13.27;7.30;;;9.30;99.90;;;;;;5085552;28;20429;-69